Dubuque, IA

6:07 PM CDT on July 16, 2019 (GMT -0500)
Dubuque Senior High School - KCRG | | Change Station
Active Advisory: Excessive Heat Watch

Elev 866 ft 42.51 °N, 90.69 °W | Updated 13 seconds ago

Partly Cloudy
Partly Cloudy
90 °F
Feels Like 96 °F
N
0.9
Wind Variable Wind from ENE
Gusts 2.0 mph

Today
High -- | Low -- °F
--% Chance of Precip.
Yesterday
High -- | Low -- °F
Precip. -- in
Pressure 29.86 in
Visibility 10.0 miles
Clouds Clear
Heat Index 96 °F
Dew Point 70 °F
Humidity 53%
Rainfall 0.00 in
Snow Depth Not available.
5:39 AM 8:37 PM
Full, 100% visible
METAR KDBQ 162253Z 09004KT 10SM CLR 29/22 A2988 RMK AO2 SLP109 T02940217
Pressure 29.86 in
Visibility 10.0 miles
Clouds Clear
Heat Index 96 °F
Dew Point 70 °F
Humidity 53%
Rainfall 0.00 in
Snow Depth Not available.
5:39 AM 8:37 PM
Full, 100% visible
METAR KDBQ 162253Z 09004KT 10SM CLR 29/22 A2988 RMK AO2 SLP109 T02940217

Get Your Daily Forecast Email!

Thanks for signing up!

Be on the lookout for a verification email in your inbox.

You'll start receiving severe weather alerts in your inbox..

×

10-Day Weather Forecast

Almanac

Astronomy

Jul. 16, 2019 Rise Set
Actual Time
Civil Twilight
Nautical Twilight
Astronomical Twilight
Moon
Length of Visible Light
Length of Day
Tomorrow will be .
, % of the Moon is Illuminated

Today's Extremes

State Highs State Lows

Community

WunderPhotos

Category 6

Welcome to Category 6. This is the collective home for Weather Underground's featured writeups by Dr. Jeff Masters (right), Bob Henson (left), Chris Burt, and other regular contributors.

Nearby

Air Quality

  Air Quality AQ Index Pollutant
Not available.

Snow Depth

Station Depth Elevation

Earthquake Activity

City Distance Mag. Time & Date
Minimum magnitude displayed is 2.5.

Coastal Water Temperatures

Place Temperature

Stations

Nearby Weather Stations

Station Location Temp. Windchill Dew Point Humidity Wind Precip. Elev Updated Type
                   

Watches & Warnings

Excessive Heat Watch
Issued: 3:29 PM CDT Jul. 16, 2019 – National Weather Service

... Excessive heat watch remains in effect from Wednesday
afternoon through Saturday evening...

* heat index values... 95 to 100 on Wednesday then potentially
ranging from 100 to 110 Thursday through Saturday.

* Timing... Wednesday afternoon through Saturday evening.

* Impacts... heat-related illnesses may occur due to the
prolonged period of heat and humidity.

Precautionary/preparedness actions...

An excessive heat watch means that a prolonged period of hot
temperatures and high humidity is possible. This combination
could create a dangerous situation in which heat illnesses are
likely. Monitor later forecasts for updated information.